sensor_id;sensor_type;location;lat;lon;timestamp;P1;durP1;ratioP1;P2;durP2;ratioP2
60908;SDS011;46780;48.128;-1.704;2022-09-09T00:00:44;43.58;;;5.90;;
60908;SDS011;46780;48.128;-1.704;2022-09-09T00:03:16;47.85;;;6.25;;
60908;SDS011;46780;48.128;-1.704;2022-09-09T00:05:47;39.85;;;6.47;;
60908;SDS011;46780;48.128;-1.704;2022-09-09T00:08:18;37.17;;;5.70;;
60908;SDS011;46780;48.128;-1.704;2022-09-09T00:10:49;37.28;;;5.85;;
60908;SDS011;46780;48.128;-1.704;2022-09-09T00:13:24;38.38;;;5.63;;
60908;SDS011;46780;48.128;-1.704;2022-09-09T00:15:57;32.88;;;5.57;;
60908;SDS011;46780;48.128;-1.704;2022-09-09T00:18:31;43.45;;;6.07;;
60908;SDS011;46780;48.128;-1.704;2022-09-09T00:21:05;40.15;;;6.03;;
60908;SDS011;46780;48.128;-1.704;2022-09-09T00:23:34;34.40;;;5.63;;
60908;SDS011;46780;48.128;-1.704;2022-09-09T00:26:07;40.33;;;5.97;;
60908;SDS011;46780;48.128;-1.704;2022-09-09T00:28:46;35.05;;;5.70;;
60908;SDS011;46780;48.128;-1.704;2022-09-09T00:31:20;38.47;;;5.50;;
60908;SDS011;46780;48.128;-1.704;2022-09-09T00:33:50;35.15;;;5.75;;
60908;SDS011;46780;48.128;-1.704;2022-09-09T00:36:20;38.75;;;6.60;;
60908;SDS011;46780;48.128;-1.704;2022-09-09T00:38:49;44.25;;;5.57;;
60908;SDS011;46780;48.128;-1.704;2022-09-09T00:41:24;31.42;;;6.22;;
60908;SDS011;46780;48.128;-1.704;2022-09-09T00:43:57;36.42;;;5.93;;
60908;SDS011;46780;48.128;-1.704;2022-09-09T00:49:24;39.70;;;5.30;;
60908;SDS011;46780;48.128;-1.704;2022-09-09T00:52:04;42.20;;;5.57;;
60908;SDS011;46780;48.128;-1.704;2022-09-09T00:54:44;28.80;;;5.30;;
60908;SDS011;46780;48.128;-1.704;2022-09-09T00:57:22;33.88;;;5.40;;
60908;SDS011;46780;48.128;-1.704;2022-09-09T00:59:51;32.10;;;5.25;;
60908;SDS011;46780;48.128;-1.704;2022-09-09T01:02:25;47.03;;;5.10;;
60908;SDS011;46780;48.128;-1.704;2022-09-09T01:04:53;28.95;;;4.88;;
60908;SDS011;46780;48.128;-1.704;2022-09-09T01:07:20;41.15;;;5.35;;
60908;SDS011;46780;48.128;-1.704;2022-09-09T01:09:54;41.17;;;5.20;;
60908;SDS011;46780;48.128;-1.704;2022-09-09T01:12:25;31.15;;;4.43;;
60908;SDS011;46780;48.128;-1.704;2022-09-09T01:15:02;30.73;;;5.00;;
60908;SDS011;46780;48.128;-1.704;2022-09-09T01:17:34;38.30;;;5.20;;
60908;SDS011;46780;48.128;-1.704;2022-09-09T01:20:08;27.17;;;4.85;;
60908;SDS011;46780;48.128;-1.704;2022-09-09T01:22:41;36.13;;;4.88;;
60908;SDS011;46780;48.128;-1.704;2022-09-09T01:25:20;31.48;;;5.97;;
60908;SDS011;46780;48.128;-1.704;2022-09-09T01:27:58;39.30;;;5.00;;
60908;SDS011;46780;48.128;-1.704;2022-09-09T01:30:28;38.22;;;5.15;;
60908;SDS011;46780;48.128;-1.704;2022-09-09T01:32:55;33.65;;;5.00;;
60908;SDS011;46780;48.128;-1.704;2022-09-09T01:35:27;31.55;;;5.32;;
60908;SDS011;46780;48.128;-1.704;2022-09-09T01:37:58;29.17;;;4.45;;
60908;SDS011;46780;48.128;-1.704;2022-09-09T01:40:25;29.90;;;4.93;;
60908;SDS011;46780;48.128;-1.704;2022-09-09T01:42:52;36.08;;;5.95;;
60908;SDS011;46780;48.128;-1.704;2022-09-09T01:45:20;37.15;;;5.55;;
60908;SDS011;46780;48.128;-1.704;2022-09-09T01:47:48;34.30;;;4.95;;
60908;SDS011;46780;48.128;-1.704;2022-09-09T01:56:26;33.65;;;5.13;;
60908;SDS011;46780;48.128;-1.704;2022-09-09T01:59:03;40.40;;;5.63;;
60908;SDS011;46780;48.128;-1.704;2022-09-09T02:01:49;35.47;;;5.85;;
60908;SDS011;46780;48.128;-1.704;2022-09-09T02:04:29;35.88;;;5.18;;
60908;SDS011;46780;48.128;-1.704;2022-09-09T02:07:02;36.85;;;5.43;;
60908;SDS011;46780;48.128;-1.704;2022-09-09T02:09:36;34.33;;;5.45;;
60908;SDS011;46780;48.128;-1.704;2022-09-09T02:12:08;33.50;;;5.28;;
60908;SDS011;46780;48.128;-1.704;2022-09-09T02:14:38;30.33;;;4.88;;
60908;SDS011;46780;48.128;-1.704;2022-09-09T02:19:36;26.15;;;4.57;;
60908;SDS011;46780;48.128;-1.704;2022-09-09T02:22:08;29.98;;;5.40;;
60908;SDS011;46780;48.128;-1.704;2022-09-09T02:24:36;36.05;;;4.82;;
60908;SDS011;46780;48.128;-1.704;2022-09-09T02:27:06;29.48;;;4.90;;
60908;SDS011;46780;48.128;-1.704;2022-09-09T02:29:35;38.53;;;5.07;;
60908;SDS011;46780;48.128;-1.704;2022-09-09T02:32:05;33.78;;;5.22;;
60908;SDS011;46780;48.128;-1.704;2022-09-09T02:34:36;26.75;;;4.30;;
60908;SDS011;46780;48.128;-1.704;2022-09-09T02:37:07;32.35;;;4.57;;
60908;SDS011;46780;48.128;-1.704;2022-09-09T02:39:35;26.35;;;4.78;;
60908;SDS011;46780;48.128;-1.704;2022-09-09T02:42:03;39.65;;;5.05;;
60908;SDS011;46780;48.128;-1.704;2022-09-09T02:44:30;30.48;;;4.30;;
60908;SDS011;46780;48.128;-1.704;2022-09-09T02:47:04;28.13;;;4.60;;
60908;SDS011;46780;48.128;-1.704;2022-09-09T02:49:50;26.20;;;4.25;;
60908;SDS011;46780;48.128;-1.704;2022-09-09T02:52:25;24.80;;;4.13;;
60908;SDS011;46780;48.128;-1.704;2022-09-09T02:55:01;22.05;;;3.70;;
60908;SDS011;46780;48.128;-1.704;2022-09-09T02:57:33;24.10;;;4.00;;
60908;SDS011;46780;48.128;-1.704;2022-09-09T03:00:00;23.10;;;3.90;;
60908;SDS011;46780;48.128;-1.704;2022-09-09T03:02:27;28.88;;;4.00;;
60908;SDS011;46780;48.128;-1.704;2022-09-09T03:04:55;35.53;;;4.40;;
60908;SDS011;46780;48.128;-1.704;2022-09-09T03:07:22;21.42;;;4.50;;
60908;SDS011;46780;48.128;-1.704;2022-09-09T03:09:48;33.15;;;4.57;;
60908;SDS011;46780;48.128;-1.704;2022-09-09T03:12:15;22.48;;;3.72;;
60908;SDS011;46780;48.128;-1.704;2022-09-09T03:14:41;21.75;;;3.95;;
60908;SDS011;46780;48.128;-1.704;2022-09-09T03:17:08;26.17;;;4.03;;
60908;SDS011;46780;48.128;-1.704;2022-09-09T03:19:34;25.70;;;4.13;;
60908;SDS011;46780;48.128;-1.704;2022-09-09T03:22:02;30.83;;;4.28;;
60908;SDS011;46780;48.128;-1.704;2022-09-09T03:24:29;30.88;;;4.03;;
60908;SDS011;46780;48.128;-1.704;2022-09-09T03:26:55;21.55;;;3.38;;
60908;SDS011;46780;48.128;-1.704;2022-09-09T03:29:22;23.65;;;3.58;;
60908;SDS011;46780;48.128;-1.704;2022-09-09T03:31:48;23.92;;;4.32;;
60908;SDS011;46780;48.128;-1.704;2022-09-09T03:34:15;23.05;;;3.70;;
60908;SDS011;46780;48.128;-1.704;2022-09-09T03:36:41;25.58;;;3.97;;
60908;SDS011;46780;48.128;-1.704;2022-09-09T03:39:09;29.58;;;3.65;;
60908;SDS011;46780;48.128;-1.704;2022-09-09T03:41:36;24.02;;;3.80;;
60908;SDS011;46780;48.128;-1.704;2022-09-09T03:44:02;20.05;;;3.58;;
60908;SDS011;46780;48.128;-1.704;2022-09-09T03:46:29;26.58;;;3.95;;
60908;SDS011;46780;48.128;-1.704;2022-09-09T03:48:55;23.20;;;3.67;;
60908;SDS011;46780;48.128;-1.704;2022-09-09T03:51:22;29.40;;;3.88;;
60908;SDS011;46780;48.128;-1.704;2022-09-09T03:53:48;32.85;;;4.32;;
60908;SDS011;46780;48.128;-1.704;2022-09-09T03:56:16;24.80;;;3.63;;
60908;SDS011;46780;48.128;-1.704;2022-09-09T03:58:42;21.73;;;3.70;;
60908;SDS011;46780;48.128;-1.704;2022-09-09T04:01:09;29.67;;;4.13;;
60908;SDS011;46780;48.128;-1.704;2022-09-09T04:03:37;23.45;;;3.70;;
60908;SDS011;46780;48.128;-1.704;2022-09-09T04:06:04;24.25;;;4.07;;
60908;SDS011;46780;48.128;-1.704;2022-09-09T04:08:31;24.80;;;4.45;;
60908;SDS011;46780;48.128;-1.704;2022-09-09T04:10:58;32.53;;;3.72;;
60908;SDS011;46780;48.128;-1.704;2022-09-09T04:13:26;26.05;;;3.72;;
60908;SDS011;46780;48.128;-1.704;2022-09-09T04:15:53;27.10;;;4.00;;
60908;SDS011;46780;48.128;-1.704;2022-09-09T04:18:20;22.40;;;3.70;;
60908;SDS011;46780;48.128;-1.704;2022-09-09T04:20:48;21.17;;;3.78;;
60908;SDS011;46780;48.128;-1.704;2022-09-09T04:23:15;24.77;;;4.07;;
60908;SDS011;46780;48.128;-1.704;2022-09-09T04:25:45;25.55;;;4.20;;
60908;SDS011;46780;48.128;-1.704;2022-09-09T04:28:11;33.13;;;4.10;;
60908;SDS011;46780;48.128;-1.704;2022-09-09T04:30:39;27.90;;;4.03;;
60908;SDS011;46780;48.128;-1.704;2022-09-09T04:33:06;24.88;;;3.88;;
60908;SDS011;46780;48.128;-1.704;2022-09-09T04:35:32;25.08;;;4.38;;
60908;SDS011;46780;48.128;-1.704;2022-09-09T04:37:59;30.20;;;4.30;;
60908;SDS011;46780;48.128;-1.704;2022-09-09T04:40:25;34.03;;;4.53;;
60908;SDS011;46780;48.128;-1.704;2022-09-09T04:42:52;23.88;;;4.03;;
60908;SDS011;46780;48.128;-1.704;2022-09-09T04:45:18;25.92;;;4.63;;
60908;SDS011;46780;48.128;-1.704;2022-09-09T04:47:46;28.52;;;4.00;;
60908;SDS011;46780;48.128;-1.704;2022-09-09T04:50:13;25.20;;;4.18;;
60908;SDS011;46780;48.128;-1.704;2022-09-09T04:52:39;26.67;;;3.90;;
60908;SDS011;46780;48.128;-1.704;2022-09-09T04:55:06;27.77;;;4.47;;
60908;SDS011;46780;48.128;-1.704;2022-09-09T04:57:34;21.33;;;3.85;;
60908;SDS011;46780;48.128;-1.704;2022-09-09T05:00:01;26.83;;;4.07;;
60908;SDS011;46780;48.128;-1.704;2022-09-09T05:02:28;35.38;;;4.30;;
60908;SDS011;46780;48.128;-1.704;2022-09-09T05:04:56;27.30;;;4.45;;
60908;SDS011;46780;48.128;-1.704;2022-09-09T05:07:22;21.83;;;4.03;;
60908;SDS011;46780;48.128;-1.704;2022-09-09T05:09:49;30.42;;;4.45;;
60908;SDS011;46780;48.128;-1.704;2022-09-09T05:12:15;34.45;;;4.18;;
60908;SDS011;46780;48.128;-1.704;2022-09-09T05:14:42;28.70;;;4.47;;
60908;SDS011;46780;48.128;-1.704;2022-09-09T05:17:08;29.90;;;4.55;;
60908;SDS011;46780;48.128;-1.704;2022-09-09T05:19:35;31.17;;;4.25;;
60908;SDS011;46780;48.128;-1.704;2022-09-09T05:22:03;26.60;;;4.03;;
60908;SDS011;46780;48.128;-1.704;2022-09-09T05:24:30;28.23;;;4.18;;
60908;SDS011;46780;48.128;-1.704;2022-09-09T05:26:56;29.52;;;4.40;;
60908;SDS011;46780;48.128;-1.704;2022-09-09T05:29:22;32.05;;;4.63;;
60908;SDS011;46780;48.128;-1.704;2022-09-09T05:31:49;27.85;;;4.32;;
60908;SDS011;46780;48.128;-1.704;2022-09-09T05:34:15;35.92;;;4.57;;
60908;SDS011;46780;48.128;-1.704;2022-09-09T05:36:42;31.85;;;4.97;;
60908;SDS011;46780;48.128;-1.704;2022-09-09T05:39:09;27.98;;;4.45;;
60908;SDS011;46780;48.128;-1.704;2022-09-09T05:41:36;26.77;;;4.40;;
60908;SDS011;46780;48.128;-1.704;2022-09-09T05:44:02;30.58;;;4.57;;
60908;SDS011;46780;48.128;-1.704;2022-09-09T05:46:29;27.10;;;4.50;;
60908;SDS011;46780;48.128;-1.704;2022-09-09T05:48:55;30.00;;;4.78;;
60908;SDS011;46780;48.128;-1.704;2022-09-09T05:51:22;33.30;;;5.13;;
60908;SDS011;46780;48.128;-1.704;2022-09-09T05:53:50;24.25;;;4.30;;
60908;SDS011;46780;48.128;-1.704;2022-09-09T05:56:19;25.05;;;4.65;;
60908;SDS011;46780;48.128;-1.704;2022-09-09T05:58:46;36.57;;;4.80;;
60908;SDS011;46780;48.128;-1.704;2022-09-09T06:01:14;29.58;;;4.75;;
60908;SDS011;46780;48.128;-1.704;2022-09-09T06:03:43;24.95;;;4.63;;
60908;SDS011;46780;48.128;-1.704;2022-09-09T06:06:11;33.97;;;5.15;;
60908;SDS011;46780;48.128;-1.704;2022-09-09T06:08:39;31.50;;;4.85;;
60908;SDS011;46780;48.128;-1.704;2022-09-09T06:11:08;36.25;;;5.28;;
60908;SDS011;46780;48.128;-1.704;2022-09-09T06:13:37;33.10;;;4.88;;
60908;SDS011;46780;48.128;-1.704;2022-09-09T06:16:04;28.92;;;4.35;;
60908;SDS011;46780;48.128;-1.704;2022-09-09T06:18:31;28.67;;;5.43;;
60908;SDS011;46780;48.128;-1.704;2022-09-09T06:20:59;28.88;;;4.65;;
60908;SDS011;46780;48.128;-1.704;2022-09-09T06:23:26;31.08;;;5.10;;
60908;SDS011;46780;48.128;-1.704;2022-09-09T06:26:00;36.53;;;5.53;;
60908;SDS011;46780;48.128;-1.704;2022-09-09T06:28:28;31.45;;;4.82;;
60908;SDS011;46780;48.128;-1.704;2022-09-09T06:30:58;29.13;;;4.15;;
60908;SDS011;46780;48.128;-1.704;2022-09-09T06:33:24;30.33;;;5.32;;
60908;SDS011;46780;48.128;-1.704;2022-09-09T06:35:51;32.25;;;5.07;;
60908;SDS011;46780;48.128;-1.704;2022-09-09T06:38:18;30.13;;;5.05;;
60908;SDS011;46780;48.128;-1.704;2022-09-09T06:40:50;34.22;;;4.63;;
60908;SDS011;46780;48.128;-1.704;2022-09-09T06:43:17;31.35;;;4.70;;
60908;SDS011;46780;48.128;-1.704;2022-09-09T06:45:43;30.80;;;4.40;;
60908;SDS011;46780;48.128;-1.704;2022-09-09T06:48:20;34.40;;;4.45;;
60908;SDS011;46780;48.128;-1.704;2022-09-09T06:50:47;28.75;;;4.20;;
60908;SDS011;46780;48.128;-1.704;2022-09-09T06:53:16;25.08;;;5.03;;
60908;SDS011;46780;48.128;-1.704;2022-09-09T06:55:43;29.65;;;5.10;;
60908;SDS011;46780;48.128;-1.704;2022-09-09T06:58:09;28.35;;;4.93;;
60908;SDS011;46780;48.128;-1.704;2022-09-09T07:00:36;22.08;;;3.63;;
60908;SDS011;46780;48.128;-1.704;2022-09-09T07:03:02;33.78;;;4.82;;
60908;SDS011;46780;48.128;-1.704;2022-09-09T07:05:30;28.40;;;4.72;;
60908;SDS011;46780;48.128;-1.704;2022-09-09T07:07:56;31.90;;;4.88;;
60908;SDS011;46780;48.128;-1.704;2022-09-09T07:10:23;30.67;;;5.60;;
60908;SDS011;46780;48.128;-1.704;2022-09-09T07:12:50;27.83;;;4.00;;
60908;SDS011;46780;48.128;-1.704;2022-09-09T07:15:17;27.42;;;4.13;;
60908;SDS011;46780;48.128;-1.704;2022-09-09T07:17:43;24.67;;;4.63;;
60908;SDS011;46780;48.128;-1.704;2022-09-09T07:20:10;36.90;;;6.20;;
60908;SDS011;46780;48.128;-1.704;2022-09-09T07:22:38;34.53;;;5.55;;
60908;SDS011;46780;48.128;-1.704;2022-09-09T07:25:05;28.38;;;4.22;;
60908;SDS011;46780;48.128;-1.704;2022-09-09T07:27:33;33.35;;;6.18;;
60908;SDS011;46780;48.128;-1.704;2022-09-09T07:30:00;24.40;;;4.38;;
60908;SDS011;46780;48.128;-1.704;2022-09-09T07:32:26;26.30;;;4.43;;
60908;SDS011;46780;48.128;-1.704;2022-09-09T07:34:52;27.27;;;4.78;;
60908;SDS011;46780;48.128;-1.704;2022-09-09T07:37:19;27.73;;;4.20;;
60908;SDS011;46780;48.128;-1.704;2022-09-09T07:39:47;24.38;;;4.13;;
60908;SDS011;46780;48.128;-1.704;2022-09-09T07:42:13;26.30;;;3.85;;
60908;SDS011;46780;48.128;-1.704;2022-09-09T07:44:40;29.65;;;4.30;;
60908;SDS011;46780;48.128;-1.704;2022-09-09T07:47:06;25.77;;;4.03;;
60908;SDS011;46780;48.128;-1.704;2022-09-09T07:49:33;20.98;;;3.67;;
60908;SDS011;46780;48.128;-1.704;2022-09-09T07:52:00;19.15;;;3.58;;
60908;SDS011;46780;48.128;-1.704;2022-09-09T07:54:27;25.70;;;4.20;;
60908;SDS011;46780;48.128;-1.704;2022-09-09T07:56:55;21.75;;;3.80;;
60908;SDS011;46780;48.128;-1.704;2022-09-09T07:59:21;25.08;;;4.35;;
60908;SDS011;46780;48.128;-1.704;2022-09-09T08:01:48;17.50;;;3.13;;
60908;SDS011;46780;48.128;-1.704;2022-09-09T08:04:17;26.42;;;3.80;;
60908;SDS011;46780;48.128;-1.704;2022-09-09T08:06:45;34.28;;;4.40;;
60908;SDS011;46780;48.128;-1.704;2022-09-09T08:09:13;31.33;;;3.80;;
60908;SDS011;46780;48.128;-1.704;2022-09-09T08:11:41;21.92;;;3.35;;
60908;SDS011;46780;48.128;-1.704;2022-09-09T08:14:10;24.02;;;3.33;;
60908;SDS011;46780;48.128;-1.704;2022-09-09T08:16:38;27.35;;;4.03;;
60908;SDS011;46780;48.128;-1.704;2022-09-09T08:19:05;33.10;;;4.00;;
60908;SDS011;46780;48.128;-1.704;2022-09-09T08:21:33;25.15;;;3.60;;
60908;SDS011;46780;48.128;-1.704;2022-09-09T08:24:01;27.92;;;4.20;;
60908;SDS011;46780;48.128;-1.704;2022-09-09T08:26:28;20.63;;;3.83;;
60908;SDS011;46780;48.128;-1.704;2022-09-09T08:28:57;33.55;;;4.38;;
60908;SDS011;46780;48.128;-1.704;2022-09-09T08:31:27;28.00;;;4.32;;
60908;SDS011;46780;48.128;-1.704;2022-09-09T08:33:55;28.35;;;4.65;;
60908;SDS011;46780;48.128;-1.704;2022-09-09T08:36:23;25.13;;;4.70;;
60908;SDS011;46780;48.128;-1.704;2022-09-09T08:38:51;28.10;;;4.05;;
60908;SDS011;46780;48.128;-1.704;2022-09-09T08:41:31;22.27;;;3.60;;
60908;SDS011;46780;48.128;-1.704;2022-09-09T08:44:21;20.35;;;3.42;;
60908;SDS011;46780;48.128;-1.704;2022-09-09T08:47:01;26.98;;;4.18;;
60908;SDS011;46780;48.128;-1.704;2022-09-09T08:49:46;25.85;;;3.53;;
60908;SDS011;46780;48.128;-1.704;2022-09-09T08:52:25;24.80;;;4.18;;
60908;SDS011;46780;48.128;-1.704;2022-09-09T08:57:23;26.70;;;3.30;;
60908;SDS011;46780;48.128;-1.704;2022-09-09T08:59:53;22.38;;;3.63;;
60908;SDS011;46780;48.128;-1.704;2022-09-09T09:02:23;26.60;;;4.07;;
60908;SDS011;46780;48.128;-1.704;2022-09-09T09:04:57;22.00;;;3.72;;
60908;SDS011;46780;48.128;-1.704;2022-09-09T09:07:37;24.58;;;3.53;;
60908;SDS011;46780;48.128;-1.704;2022-09-09T09:10:15;25.70;;;3.90;;
60908;SDS011;46780;48.128;-1.704;2022-09-09T09:12:52;23.33;;;3.70;;
60908;SDS011;46780;48.128;-1.704;2022-09-09T09:15:21;27.25;;;4.55;;
60908;SDS011;46780;48.128;-1.704;2022-09-09T09:17:51;21.35;;;3.60;;
60908;SDS011;46780;48.128;-1.704;2022-09-09T09:20:18;21.45;;;3.08;;
60908;SDS011;46780;48.128;-1.704;2022-09-09T09:22:52;26.75;;;3.72;;
60908;SDS011;46780;48.128;-1.704;2022-09-09T09:25:23;22.38;;;3.50;;
60908;SDS011;46780;48.128;-1.704;2022-09-09T09:27:57;24.02;;;3.40;;
60908;SDS011;46780;48.128;-1.704;2022-09-09T09:30:26;24.80;;;3.40;;
60908;SDS011;46780;48.128;-1.704;2022-09-09T09:32:58;22.00;;;3.37;;
60908;SDS011;46780;48.128;-1.704;2022-09-09T09:35:27;24.60;;;3.80;;
60908;SDS011;46780;48.128;-1.704;2022-09-09T09:37:54;21.73;;;2.95;;
60908;SDS011;46780;48.128;-1.704;2022-09-09T09:40:21;20.15;;;3.15;;
60908;SDS011;46780;48.128;-1.704;2022-09-09T09:42:49;23.42;;;3.45;;
60908;SDS011;46780;48.128;-1.704;2022-09-09T09:45:26;20.83;;;3.13;;
60908;SDS011;46780;48.128;-1.704;2022-09-09T09:47:59;25.92;;;3.30;;
60908;SDS011;46780;48.128;-1.704;2022-09-09T09:50:27;22.08;;;2.85;;
60908;SDS011;46780;48.128;-1.704;2022-09-09T09:52:55;20.67;;;2.75;;
60908;SDS011;46780;48.128;-1.704;2022-09-09T09:55:23;16.33;;;3.22;;
60908;SDS011;46780;48.128;-1.704;2022-09-09T09:57:50;19.08;;;2.78;;
60908;SDS011;46780;48.128;-1.704;2022-09-09T10:00:18;18.25;;;2.80;;
60908;SDS011;46780;48.128;-1.704;2022-09-09T10:02:46;21.02;;;3.45;;
60908;SDS011;46780;48.128;-1.704;2022-09-09T10:05:15;20.38;;;2.88;;
60908;SDS011;46780;48.128;-1.704;2022-09-09T10:07:43;13.70;;;2.45;;
60908;SDS011;46780;48.128;-1.704;2022-09-09T10:10:12;21.17;;;3.00;;
60908;SDS011;46780;48.128;-1.704;2022-09-09T10:12:47;16.58;;;3.22;;
60908;SDS011;46780;48.128;-1.704;2022-09-09T10:15:29;25.73;;;3.25;;
60908;SDS011;46780;48.128;-1.704;2022-09-09T10:18:04;21.73;;;3.20;;
60908;SDS011;46780;48.128;-1.704;2022-09-09T10:20:43;17.40;;;2.78;;
60908;SDS011;46780;48.128;-1.704;2022-09-09T10:23:23;16.70;;;2.70;;
60908;SDS011;46780;48.128;-1.704;2022-09-09T10:26:01;22.52;;;3.75;;
60908;SDS011;46780;48.128;-1.704;2022-09-09T10:28:55;15.77;;;2.85;;
60908;SDS011;46780;48.128;-1.704;2022-09-09T10:31:36;23.58;;;3.45;;
60908;SDS011;46780;48.128;-1.704;2022-09-09T10:34:17;17.05;;;2.70;;
60908;SDS011;46780;48.128;-1.704;2022-09-09T10:36:54;16.08;;;2.95;;
60908;SDS011;46780;48.128;-1.704;2022-09-09T10:39:27;16.38;;;2.80;;
60908;SDS011;46780;48.128;-1.704;2022-09-09T10:42:00;20.13;;;3.15;;
60908;SDS011;46780;48.128;-1.704;2022-09-09T10:44:35;17.67;;;3.13;;
60908;SDS011;46780;48.128;-1.704;2022-09-09T10:47:25;27.50;;;2.80;;
60908;SDS011;46780;48.128;-1.704;2022-09-09T10:50:12;15.52;;;2.67;;
60908;SDS011;46780;48.128;-1.704;2022-09-09T10:52:50;20.50;;;3.08;;
60908;SDS011;46780;48.128;-1.704;2022-09-09T10:55:23;13.88;;;2.65;;
60908;SDS011;46780;48.128;-1.704;2022-09-09T10:57:53;12.20;;;2.30;;
60908;SDS011;46780;48.128;-1.704;2022-09-09T11:00:23;20.27;;;2.50;;
60908;SDS011;46780;48.128;-1.704;2022-09-09T11:02:52;14.68;;;2.80;;
60908;SDS011;46780;48.128;-1.704;2022-09-09T11:05:22;14.93;;;2.85;;
60908;SDS011;46780;48.128;-1.704;2022-09-09T11:07:56;12.43;;;2.10;;
60908;SDS011;46780;48.128;-1.704;2022-09-09T11:10:26;17.00;;;2.63;;
60908;SDS011;46780;48.128;-1.704;2022-09-09T11:13:01;13.43;;;2.28;;
60908;SDS011;46780;48.128;-1.704;2022-09-09T11:15:34;11.73;;;2.13;;
60908;SDS011;46780;48.128;-1.704;2022-09-09T11:18:05;14.00;;;2.30;;
60908;SDS011;46780;48.128;-1.704;2022-09-09T11:20:36;15.38;;;2.28;;
60908;SDS011;46780;48.128;-1.704;2022-09-09T11:23:06;12.60;;;2.20;;
60908;SDS011;46780;48.128;-1.704;2022-09-09T11:25:38;14.90;;;2.00;;
60908;SDS011;46780;48.128;-1.704;2022-09-09T11:28:14;14.35;;;2.20;;
60908;SDS011;46780;48.128;-1.704;2022-09-09T11:30:57;18.67;;;2.60;;
60908;SDS011;46780;48.128;-1.704;2022-09-09T11:33:46;12.25;;;2.45;;
60908;SDS011;46780;48.128;-1.704;2022-09-09T11:36:41;14.80;;;2.30;;
60908;SDS011;46780;48.128;-1.704;2022-09-09T11:39:23;15.70;;;2.55;;
60908;SDS011;46780;48.128;-1.704;2022-09-09T11:42:18;13.38;;;2.58;;
60908;SDS011;46780;48.128;-1.704;2022-09-09T11:44:46;17.30;;;2.58;;
60908;SDS011;46780;48.128;-1.704;2022-09-09T11:47:20;15.38;;;2.50;;
60908;SDS011;46780;48.128;-1.704;2022-09-09T11:49:50;23.08;;;3.13;;
60908;SDS011;46780;48.128;-1.704;2022-09-09T11:52:21;18.92;;;2.67;;
60908;SDS011;46780;48.128;-1.704;2022-09-09T11:54:50;12.35;;;2.38;;
60908;SDS011;46780;48.128;-1.704;2022-09-09T11:57:22;10.95;;;1.95;;
60908;SDS011;46780;48.128;-1.704;2022-09-09T11:59:51;10.80;;;1.92;;
60908;SDS011;46780;48.128;-1.704;2022-09-09T12:02:18;7.88;;;1.58;;
60908;SDS011;46780;48.128;-1.704;2022-09-09T12:04:49;9.88;;;1.67;;
60908;SDS011;46780;48.128;-1.704;2022-09-09T12:07:28;10.18;;;1.80;;
60908;SDS011;46780;48.128;-1.704;2022-09-09T12:10:04;10.45;;;1.85;;
60908;SDS011;46780;48.128;-1.704;2022-09-09T12:12:44;15.38;;;2.35;;
60908;SDS011;46780;48.128;-1.704;2022-09-09T12:15:18;11.27;;;1.90;;
60908;SDS011;46780;48.128;-1.704;2022-09-09T12:17:47;7.13;;;1.50;;
60908;SDS011;46780;48.128;-1.704;2022-09-09T12:20:16;9.05;;;1.67;;
60908;SDS011;46780;48.128;-1.704;2022-09-09T12:22:47;10.13;;;1.92;;
60908;SDS011;46780;48.128;-1.704;2022-09-09T12:25:29;10.60;;;2.13;;
60908;SDS011;46780;48.128;-1.704;2022-09-09T12:28:03;13.38;;;3.20;;
60908;SDS011;46780;48.128;-1.704;2022-09-09T12:30:36;11.60;;;2.30;;
60908;SDS011;46780;48.128;-1.704;2022-09-09T12:33:13;14.95;;;2.47;;
60908;SDS011;46780;48.128;-1.704;2022-09-09T12:38:11;14.27;;;2.38;;
60908;SDS011;46780;48.128;-1.704;2022-09-09T12:40:42;11.43;;;2.33;;
60908;SDS011;46780;48.128;-1.704;2022-09-09T12:43:19;10.20;;;2.50;;
60908;SDS011;46780;48.128;-1.704;2022-09-09T12:45:47;13.77;;;2.58;;
60908;SDS011;46780;48.128;-1.704;2022-09-09T12:48:16;15.35;;;2.30;;
60908;SDS011;46780;48.128;-1.704;2022-09-09T12:50:46;13.23;;;2.08;;
60908;SDS011;46780;48.128;-1.704;2022-09-09T12:53:23;13.10;;;2.10;;
60908;SDS011;46780;48.128;-1.704;2022-09-09T12:55:55;14.27;;;2.40;;
60908;SDS011;46780;48.128;-1.704;2022-09-09T12:58:23;11.15;;;2.20;;
60908;SDS011;46780;48.128;-1.704;2022-09-09T13:00:51;12.23;;;2.20;;
60908;SDS011;46780;48.128;-1.704;2022-09-09T13:03:19;12.63;;;2.40;;
60908;SDS011;46780;48.128;-1.704;2022-09-09T13:05:46;9.55;;;2.00;;
60908;SDS011;46780;48.128;-1.704;2022-09-09T13:08:13;10.07;;;1.83;;
60908;SDS011;46780;48.128;-1.704;2022-09-09T13:10:43;12.50;;;2.22;;
60908;SDS011;46780;48.128;-1.704;2022-09-09T13:13:14;12.13;;;2.13;;
60908;SDS011;46780;48.128;-1.704;2022-09-09T13:15:48;13.52;;;1.88;;
60908;SDS011;46780;48.128;-1.704;2022-09-09T13:18:16;14.40;;;2.38;;
60908;SDS011;46780;48.128;-1.704;2022-09-09T13:20:47;10.50;;;1.90;;
60908;SDS011;46780;48.128;-1.704;2022-09-09T13:23:14;14.98;;;2.42;;
60908;SDS011;46780;48.128;-1.704;2022-09-09T13:25:41;11.90;;;2.10;;
60908;SDS011;46780;48.128;-1.704;2022-09-09T13:28:22;12.85;;;2.33;;
60908;SDS011;46780;48.128;-1.704;2022-09-09T13:30:55;15.02;;;2.53;;
60908;SDS011;46780;48.128;-1.704;2022-09-09T13:33:23;13.85;;;2.40;;
60908;SDS011;46780;48.128;-1.704;2022-09-09T13:35:55;16.77;;;2.50;;
60908;SDS011;46780;48.128;-1.704;2022-09-09T13:38:23;10.48;;;2.22;;
60908;SDS011;46780;48.128;-1.704;2022-09-09T13:40:53;11.23;;;2.50;;
60908;SDS011;46780;48.128;-1.704;2022-09-09T13:43:24;20.63;;;2.50;;
60908;SDS011;46780;48.128;-1.704;2022-09-09T13:45:52;10.30;;;2.30;;
60908;SDS011;46780;48.128;-1.704;2022-09-09T13:48:23;12.57;;;2.33;;
60908;SDS011;46780;48.128;-1.704;2022-09-09T13:50:56;12.13;;;2.50;;
60908;SDS011;46780;48.128;-1.704;2022-09-09T13:53:24;13.05;;;2.53;;
60908;SDS011;46780;48.128;-1.704;2022-09-09T13:55:51;12.07;;;2.28;;
60908;SDS011;46780;48.128;-1.704;2022-09-09T13:58:18;13.80;;;2.47;;
60908;SDS011;46780;48.128;-1.704;2022-09-09T14:00:46;11.20;;;2.00;;
60908;SDS011;46780;48.128;-1.704;2022-09-09T14:03:13;9.07;;;2.42;;
60908;SDS011;46780;48.128;-1.704;2022-09-09T14:05:40;12.18;;;2.08;;
60908;SDS011;46780;48.128;-1.704;2022-09-09T14:08:07;8.52;;;2.00;;
60908;SDS011;46780;48.128;-1.704;2022-09-09T14:10:36;9.77;;;1.95;;
60908;SDS011;46780;48.128;-1.704;2022-09-09T14:13:03;12.65;;;2.17;;
60908;SDS011;46780;48.128;-1.704;2022-09-09T14:15:29;8.25;;;2.00;;
60908;SDS011;46780;48.128;-1.704;2022-09-09T14:17:57;10.43;;;1.88;;
60908;SDS011;46780;48.128;-1.704;2022-09-09T14:20:23;6.55;;;1.65;;
60908;SDS011;46780;48.128;-1.704;2022-09-09T14:22:50;9.43;;;1.85;;
60908;SDS011;46780;48.128;-1.704;2022-09-09T14:25:16;5.97;;;1.55;;
60908;SDS011;46780;48.128;-1.704;2022-09-09T14:27:43;10.27;;;1.65;;
60908;SDS011;46780;48.128;-1.704;2022-09-09T14:30:10;8.75;;;1.80;;
60908;SDS011;46780;48.128;-1.704;2022-09-09T14:32:37;12.95;;;2.20;;
60908;SDS011;46780;48.128;-1.704;2022-09-09T14:35:05;8.27;;;1.80;;
60908;SDS011;46780;48.128;-1.704;2022-09-09T14:37:32;6.88;;;1.80;;
60908;SDS011;46780;48.128;-1.704;2022-09-09T14:39:58;10.13;;;2.05;;
60908;SDS011;46780;48.128;-1.704;2022-09-09T14:42:25;9.63;;;2.25;;
60908;SDS011;46780;48.128;-1.704;2022-09-09T14:44:51;8.88;;;1.70;;
60908;SDS011;46780;48.128;-1.704;2022-09-09T14:47:18;9.82;;;1.70;;
60908;SDS011;46780;48.128;-1.704;2022-09-09T14:49:44;4.68;;;1.58;;
60908;SDS011;46780;48.128;-1.704;2022-09-09T14:52:12;9.18;;;1.70;;
60908;SDS011;46780;48.128;-1.704;2022-09-09T14:54:39;6.82;;;1.55;;
60908;SDS011;46780;48.128;-1.704;2022-09-09T14:57:05;9.20;;;1.60;;